createdAt,value
2023-05-08T00:04:02.237Z,1.10
2023-05-08T00:09:04.796Z,1.85
2023-05-08T00:14:06.957Z,2.60
2023-05-08T00:19:09.086Z,2.40
2023-05-08T00:24:11.238Z,2.30
2023-05-08T00:29:13.347Z,1.95
2023-05-08T00:34:15.624Z,1.73
2023-05-08T00:39:17.770Z,2.38
2023-05-08T00:44:19.950Z,1.55
2023-05-08T00:49:22.755Z,1.35
2023-05-08T00:54:26.576Z,2.38
2023-05-08T00:59:28.834Z,3.33
2023-05-08T01:04:32.101Z,2.42
2023-05-08T01:09:34.399Z,1.67
2023-05-08T01:15:11.219Z,1.05
2023-05-08T01:20:36.529Z,1.75
2023-05-08T01:25:44.450Z,2.40
2023-05-08T01:31:23.774Z,3.65
2023-05-08T01:36:37.473Z,1.73
2023-05-08T01:41:43.692Z,1.98
2023-05-08T01:46:49.397Z,2.13
2023-05-08T01:52:01.453Z,2.97
2023-05-08T01:57:04.816Z,3.75
2023-05-08T02:02:08.867Z,2.88
2023-05-08T02:07:11.504Z,2.20
2023-05-08T02:12:16.693Z,3.45
2023-05-08T02:17:21.133Z,2.58
2023-05-08T02:22:24.577Z,2.60
2023-05-08T02:27:29.408Z,3.97
2023-05-08T02:32:33.282Z,2.90
2023-05-08T02:37:35.770Z,2.95
2023-05-08T02:42:38.256Z,2.58
2023-05-08T02:48:03.205Z,2.72
2023-05-08T02:53:11.679Z,3.00
2023-05-08T02:58:32.177Z,3.38
2023-05-08T03:03:41.470Z,4.38
2023-05-08T03:08:47.356Z,4.68
2023-05-08T03:13:52.648Z,3.63
2023-05-08T03:19:01.840Z,6.20
2023-05-08T03:29:08.532Z,3.95
2023-05-08T03:34:13.172Z,5.28
2023-05-08T03:39:15.958Z,4.50
2023-05-08T03:44:19.321Z,4.35
2023-05-08T03:49:23.921Z,3.97
2023-05-08T03:54:28.710Z,4.53
2023-05-08T03:59:42.660Z,7.70
2023-05-08T04:04:47.781Z,4.88
2023-05-08T04:10:00.575Z,5.85
2023-05-08T04:15:20.832Z,5.50
2023-05-08T04:20:27.025Z,6.13
2023-05-08T04:25:31.079Z,6.70
2023-05-08T04:30:33.998Z,6.55
2023-05-08T04:35:36.423Z,7.85
2023-05-08T04:40:38.827Z,7.88
2023-05-08T04:45:41.842Z,6.50
2023-05-08T04:50:44.012Z,6.65
2023-05-08T04:55:46.252Z,6.82
2023-05-08T05:00:48.926Z,6.03
2023-05-08T05:05:58.179Z,8.38
2023-05-08T05:11:00.427Z,7.10
2023-05-08T05:16:03.363Z,8.50
2023-05-08T05:21:05.576Z,10.48
2023-05-08T05:26:08.244Z,7.53
2023-05-08T05:31:10.926Z,7.32
2023-05-08T05:36:13.279Z,8.15
2023-05-08T05:41:15.621Z,6.95
2023-05-08T05:46:19.001Z,6.63
2023-05-08T05:51:21.310Z,6.78
2023-05-08T05:56:23.910Z,12.68
2023-05-08T06:01:26.418Z,11.20
2023-05-08T06:06:28.652Z,6.00
2023-05-08T06:11:31.210Z,12.18
2023-05-08T06:16:33.547Z,8.77
2023-05-08T06:21:35.535Z,8.65
2023-05-08T06:26:37.577Z,7.53
2023-05-08T06:31:39.677Z,8.07
2023-05-08T06:36:41.714Z,15.18
2023-05-08T06:41:44.545Z,9.82
2023-05-08T06:46:47.406Z,7.65
2023-05-08T06:51:49.625Z,8.05
2023-05-08T06:56:54.524Z,7.90
2023-05-08T07:01:56.650Z,8.70
2023-05-08T07:06:58.939Z,9.18
2023-05-08T07:12:01.130Z,8.45
2023-05-08T07:17:07.102Z,9.77
2023-05-08T07:22:09.181Z,11.77
2023-05-08T07:27:11.253Z,10.68
2023-05-08T07:32:13.507Z,11.02
2023-05-08T07:37:15.666Z,9.93
2023-05-08T07:42:18.536Z,8.13
2023-05-08T07:47:20.609Z,9.32
2023-05-08T07:52:23.399Z,11.15
2023-05-08T07:57:25.560Z,8.52
2023-05-08T08:02:27.722Z,7.43
2023-05-08T08:07:30.008Z,11.57
2023-05-08T08:12:32.228Z,8.50
2023-05-08T08:17:34.338Z,10.32
2023-05-08T08:22:37.817Z,9.45
2023-05-08T08:27:40.256Z,9.00
2023-05-08T08:32:42.436Z,9.30
2023-05-08T08:37:44.822Z,9.80
2023-05-08T08:42:47.403Z,11.80
2023-05-08T08:47:53.462Z,13.07
2023-05-08T08:53:10.652Z,9.20
2023-05-08T08:58:23.132Z,8.48
2023-05-08T09:03:25.494Z,10.27
2023-05-08T09:08:28.206Z,14.20
2023-05-08T09:13:30.641Z,10.68
2023-05-08T09:18:32.761Z,10.43
2023-05-08T09:23:38.001Z,12.27
2023-05-08T09:28:40.080Z,11.05
2023-05-08T09:33:46.146Z,11.77
2023-05-08T09:38:48.267Z,7.20
2023-05-08T09:44:04.756Z,15.35
2023-05-08T09:49:07.104Z,13.00
2023-05-08T09:54:18.172Z,9.00
2023-05-08T09:59:26.897Z,14.63
2023-05-08T10:04:33.903Z,10.70
2023-05-08T10:09:49.892Z,12.15
2023-05-08T10:14:52.901Z,14.55
2023-05-08T10:20:01.527Z,9.93
2023-05-08T10:25:08.178Z,11.52
2023-05-08T10:30:13.656Z,9.57
2023-05-08T10:35:16.136Z,12.27
2023-05-08T10:40:21.887Z,10.82
2023-05-08T10:45:24.607Z,13.27
2023-05-08T10:50:53.668Z,10.15
2023-05-08T10:55:56.066Z,12.32
2023-05-08T11:00:59.852Z,13.02
2023-05-08T11:06:02.167Z,9.75
2023-05-08T11:11:15.157Z,14.05
2023-05-08T11:16:17.367Z,14.93
2023-05-08T11:21:24.118Z,11.68
2023-05-08T11:26:42.497Z,13.73
2023-05-08T11:31:51.856Z,16.40
2023-05-08T11:37:04.778Z,15.90
2023-05-08T11:42:24.982Z,13.52
2023-05-08T11:47:36.947Z,15.43
2023-05-08T11:52:40.536Z,13.35
2023-05-08T11:57:42.642Z,13.38
2023-05-08T12:02:47.634Z,11.00
2023-05-08T12:07:49.684Z,10.98
2023-05-08T12:12:51.906Z,12.15
2023-05-08T12:18:05.614Z,12.70
2023-05-08T12:23:09.029Z,18.90
2023-05-08T12:28:11.485Z,14.07
2023-05-08T12:33:14.643Z,13.27
2023-05-08T12:38:16.812Z,16.80
2023-05-08T12:43:19.407Z,15.15
2023-05-08T12:48:21.570Z,16.20
2023-05-08T12:53:23.770Z,13.65
2023-05-08T12:58:28.012Z,13.38
2023-05-08T13:03:30.809Z,12.18
2023-05-08T13:08:36.283Z,14.95
2023-05-08T13:13:38.451Z,14.35
2023-05-08T13:18:40.668Z,13.43
2023-05-08T13:23:43.562Z,15.00
2023-05-08T13:28:45.673Z,15.50
2023-05-08T13:33:47.842Z,16.20
2023-05-08T13:38:51.567Z,16.05
2023-05-08T13:43:53.817Z,17.23
2023-05-08T13:48:56.053Z,15.32
2023-05-08T13:53:58.234Z,12.27
2023-05-08T13:59:00.383Z,16.95
2023-05-08T14:04:02.843Z,12.95
2023-05-08T14:09:05.150Z,9.18
2023-05-08T14:14:07.529Z,12.48
2023-05-08T14:19:09.755Z,13.40
2023-05-08T14:24:11.978Z,16.90
2023-05-08T14:29:14.275Z,10.55
2023-05-08T14:34:16.314Z,12.88
2023-05-08T14:39:18.524Z,11.95
2023-05-08T14:44:20.732Z,11.10
2023-05-08T14:49:36.603Z,11.20
2023-05-08T14:54:40.300Z,12.85
2023-05-08T15:05:10.780Z,10.85
2023-05-08T15:10:16.119Z,13.07
2023-05-08T15:15:18.319Z,15.02
2023-05-08T15:20:21.392Z,13.23
2023-05-08T15:25:23.607Z,11.77
2023-05-08T15:30:25.920Z,10.82
2023-05-08T15:35:28.036Z,13.15
2023-05-08T15:40:30.112Z,12.20
2023-05-08T15:45:32.291Z,9.77
2023-05-08T15:50:34.443Z,10.32
2023-05-08T15:55:36.735Z,12.57
2023-05-08T16:00:44.802Z,8.90
2023-05-08T16:05:47.539Z,8.55
2023-05-08T16:10:49.720Z,8.63
2023-05-08T16:15:51.798Z,7.78
2023-05-08T16:20:53.919Z,6.90
2023-05-08T16:25:55.985Z,6.85
2023-05-08T16:30:58.098Z,8.10
2023-05-08T16:36:00.249Z,7.78
2023-05-08T16:41:06.067Z,9.40
2023-05-08T16:46:08.396Z,10.40
2023-05-08T16:51:10.593Z,6.60
2023-05-08T16:56:12.712Z,5.47
2023-05-08T17:01:15.222Z,8.13
2023-05-08T17:06:17.348Z,9.25
2023-05-08T17:11:19.426Z,8.40
2023-05-08T17:16:21.557Z,8.90
2023-05-08T17:21:23.660Z,7.70
2023-05-08T17:26:25.727Z,8.93
2023-05-08T17:31:27.996Z,8.48
2023-05-08T17:36:30.103Z,7.10
2023-05-08T17:41:32.357Z,5.93
2023-05-08T17:46:34.479Z,7.28
2023-05-08T17:51:36.557Z,8.88
2023-05-08T17:56:38.657Z,9.95
2023-05-08T18:01:40.860Z,5.07
2023-05-08T18:06:43.752Z,7.53
2023-05-08T18:11:45.776Z,4.57
2023-05-08T18:16:47.776Z,4.88
2023-05-08T18:21:49.861Z,7.63
2023-05-08T18:26:52.814Z,8.15
2023-05-08T18:31:55.025Z,6.60
2023-05-08T18:36:58.144Z,6.78
2023-05-08T18:42:00.358Z,6.82
2023-05-08T18:47:02.493Z,3.95
2023-05-08T18:52:04.688Z,6.20
2023-05-08T18:57:06.850Z,7.85
2023-05-08T19:02:08.985Z,6.80
2023-05-08T19:07:11.050Z,6.80
2023-05-08T19:12:13.161Z,4.93
2023-05-08T19:17:15.390Z,5.97
2023-05-08T19:22:17.739Z,7.18
2023-05-08T19:27:19.838Z,5.50
2023-05-08T19:32:21.934Z,6.43
2023-05-08T19:37:24.861Z,7.85
2023-05-08T19:42:27.150Z,4.13
2023-05-08T19:47:29.374Z,7.25
2023-05-08T19:52:31.423Z,4.68
2023-05-08T19:57:33.587Z,4.00
2023-05-08T20:02:35.721Z,5.70
2023-05-08T20:07:37.802Z,6.00
2023-05-08T20:12:39.949Z,5.85
2023-05-08T20:17:42.145Z,4.80
2023-05-08T20:22:44.284Z,6.22
2023-05-08T20:27:46.244Z,6.20
2023-05-08T20:32:48.403Z,4.47
2023-05-08T20:37:50.584Z,4.35
2023-05-08T20:42:52.624Z,7.50
2023-05-08T20:47:54.702Z,6.63
2023-05-08T20:52:56.942Z,7.55
2023-05-08T20:57:59.633Z,4.40
2023-05-08T21:03:02.539Z,5.13
2023-05-08T21:08:06.376Z,9.18
2023-05-08T21:13:08.513Z,4.43
2023-05-08T21:18:12.134Z,6.85
2023-05-08T21:33:18.573Z,5.32
2023-05-08T21:38:20.628Z,8.15
2023-05-08T21:43:22.741Z,8.02
2023-05-08T21:48:25.213Z,4.95
2023-05-08T21:53:27.559Z,8.73
2023-05-08T21:58:29.884Z,6.25
2023-05-08T22:03:32.125Z,6.40
2023-05-08T22:08:34.345Z,6.15
2023-05-08T22:13:36.803Z,7.60
2023-05-08T22:18:38.927Z,9.60
2023-05-08T22:23:40.980Z,6.38
2023-05-08T22:28:43.066Z,6.55
2023-05-08T22:33:45.284Z,6.80
2023-05-08T22:38:47.372Z,9.15
2023-05-08T22:43:49.550Z,6.55
2023-05-08T22:48:54.887Z,6.05
2023-05-08T22:53:57.248Z,6.53
2023-05-08T22:58:59.341Z,5.68
2023-05-08T23:04:01.484Z,7.35
2023-05-08T23:09:04.516Z,7.72
2023-05-08T23:14:06.627Z,7.05
2023-05-08T23:19:10.153Z,5.95
2023-05-08T23:24:12.281Z,6.93
2023-05-08T23:29:14.416Z,7.53
2023-05-08T23:34:16.460Z,8.07
2023-05-08T23:39:18.863Z,6.45
2023-05-08T23:44:21.264Z,6.85
2023-05-08T23:49:23.307Z,6.30
2023-05-08T23:54:25.838Z,7.15
2023-05-08T23:59:28.074Z,4.38
